Time;durP1;ratioP1;P1;durP2;ratioP2;P2;SDS_P1;SDS_P2;PMS_P1;PMS_P2;Temp;Humidity;BMP_temperature;BMP_pressure;BME280_temperature;BME280_humidity;BME280_pressure;Samples;Min_cycle;Max_cycle;Signal;HPM_P1;HPM_P2
2021/03/05 05:02:40;;;;;;;1.90;1.73;;;-0.50;99.90;;;;;;4959347;23;20742;-68
2021/03/05 05:05:06;;;;;;;2.25;2.00;;;-0.50;99.90;;;;;;4937732;29;20266;-68
2021/03/05 05:07:33;;;;;;;1.80;1.70;;;-0.50;99.90;;;;;;4936833;29;20230;-68
2021/03/05 05:09:59;;;;;;;7.53;2.30;;;-0.60;99.90;;;;;;4937626;29;20238;-68
2021/03/05 05:12:25;;;;;;;2.17;1.73;;;-0.60;99.90;;;;;;4917895;29;20703;-68
2021/03/05 05:14:51;;;;;;;1.92;1.83;;;-0.60;99.90;;;;;;4916842;29;20217;-67
2021/03/05 05:17:17;;;;;;;2.03;1.92;;;-0.60;99.90;;;;;;4917723;29;20274;-67
2021/03/05 05:19:44;;;;;;;3.50;2.40;;;-0.60;99.90;;;;;;4917977;29;20558;-67
2021/03/05 05:22:10;;;;;;;8.48;2.40;;;-0.70;99.90;;;;;;4899975;29;20658;-68
2021/03/05 05:24:37;;;;;;;1.83;1.73;;;-0.70;99.90;;;;;;4912994;29;20701;-69
2021/03/05 05:27:04;;;;;;;3.63;2.22;;;-0.70;99.90;;;;;;4917093;29;20704;-69
2021/03/05 05:29:30;;;;;;;2.58;2.35;;;-0.70;99.90;;;;;;4917316;29;20206;-69
2021/03/05 05:31:56;;;;;;;1.83;1.73;;;-0.70;99.90;;;;;;4918043;29;20245;-69
2021/03/05 05:34:23;;;;;;;2.30;2.22;;;-0.70;99.90;;;;;;4917223;29;20554;-68
2021/03/05 05:36:50;;;;;;;7.35;2.45;;;-0.70;99.90;;;;;;4917826;29;20210;-68
2021/03/05 05:39:16;;;;;;;2.80;2.60;;;-0.70;99.90;;;;;;4916079;29;20669;-68
2021/03/05 05:41:42;;;;;;;9.77;3.05;;;-0.80;99.90;;;;;;4917385;29;20233;-68
2021/03/05 05:44:09;;;;;;;2.70;2.53;;;-0.80;99.90;;;;;;4916981;29;20215;-68
2021/03/05 05:46:35;;;;;;;2.92;2.25;;;-0.80;99.90;;;;;;4917824;29;20230;-68
2021/03/05 05:49:03;;;;;;;20.00;12.05;;;-0.80;99.90;;;;;;4918100;29;20230;-68
2021/03/05 05:51:34;;;;;;;2.97;2.78;;;-0.80;99.90;;;;;;4908513;29;20231;-68
2021/03/05 05:54:07;;;;;;;3.42;2.30;;;-0.80;99.90;;;;;;4916816;29;20207;-67
2021/03/05 05:56:35;;;;;;;2.83;2.70;;;-0.80;99.90;;;;;;4915777;29;20555;-68
2021/03/05 05:59:01;;;;;;;7.40;3.08;;;-0.80;99.90;;;;;;4917593;29;20222;-68
2021/03/05 06:01:32;;;;;;;2.83;2.63;;;-0.80;99.90;;;;;;4900404;29;20239;-68
2021/03/05 06:04:00;;;;;;;3.00;2.80;;;-0.80;99.90;;;;;;4906362;29;20306;-68
2021/03/05 06:06:26;;;;;;;3.33;2.95;;;-0.80;99.90;;;;;;4917235;29;20720;-68
2021/03/05 06:08:55;;;;;;;5.82;3.67;;;-0.80;99.90;;;;;;4916946;29;20210;-67
2021/03/05 06:11:22;;;;;;;4.70;2.33;;;-0.80;99.90;;;;;;4901862;29;20238;-67
2021/03/05 06:13:48;;;;;;;3.25;3.03;;;-0.80;99.90;;;;;;4908516;29;20214;-67
2021/03/05 06:16:16;;;;;;;3.92;3.33;;;-0.80;99.90;;;;;;4915824;29;20214;-68
2021/03/05 06:18:43;;;;;;;3.55;3.35;;;-0.90;99.90;;;;;;4917223;29;20563;-67
2021/03/05 06:21:10;;;;;;;5.10;3.80;;;-0.80;99.90;;;;;;4905509;29;20232;-68
2021/03/05 06:23:55;;;;;;;4.40;3.95;;;-0.90;99.90;;;;;;4907940;29;20211;-67
2021/03/05 06:26:22;;;;;;;5.30;4.90;;;-0.70;99.90;;;;;;4905631;29;20543;-68
2021/03/05 06:29:03;;;;;;;6.57;5.85;;;-0.80;99.90;;;;;;4917380;29;20246;-67
2021/03/05 06:31:30;;;;;;;9.02;5.80;;;-0.80;99.90;;;;;;4915990;29;20577;-68
2021/03/05 06:34:00;;;;;;;6.03;5.15;;;-0.80;99.90;;;;;;4916899;29;20641;-67
2021/03/05 06:36:27;;;;;;;7.00;6.38;;;-0.80;99.90;;;;;;4903711;29;20653;-67
2021/03/05 06:38:54;;;;;;;6.13;5.47;;;-0.70;99.90;;;;;;4917205;29;20274;-67
2021/03/05 06:41:24;;;;;;;5.68;4.82;;;-0.70;99.90;;;;;;4915820;29;20239;-68
2021/03/05 06:43:52;;;;;;;6.30;5.80;;;-0.70;99.90;;;;;;4903363;29;20215;-67
2021/03/05 06:46:35;;;;;;;5.65;4.90;;;-0.60;99.90;;;;;;4914504;29;20214;-68
2021/03/05 06:49:03;;;;;;;6.90;5.78;;;-0.60;99.90;;;;;;4915669;29;20278;-68
2021/03/05 06:51:30;;;;;;;8.55;5.60;;;-0.60;99.90;;;;;;4917308;29;20230;-67
2021/03/05 06:54:07;;;;;;;6.00;4.60;;;-0.60;99.90;;;;;;4915211;29;20207;-67
2021/03/05 06:56:35;;;;;;;5.70;5.25;;;-0.50;99.90;;;;;;4915964;29;20545;-67
2021/03/05 06:59:04;;;;;;;5.82;5.20;;;-0.50;99.90;;;;;;4916375;29;20225;-68
2021/03/05 07:01:30;;;;;;;10.52;5.38;;;-0.50;99.90;;;;;;4915983;29;20250;-68
2021/03/05 07:04:11;;;;;;;5.45;4.97;;;-0.40;99.90;;;;;;4917165;29;20570;-71
2021/03/05 07:06:38;;;;;;;5.38;4.88;;;-0.40;99.90;;;;;;4912768;29;20246;-71
2021/03/05 07:09:06;;;;;;;6.90;6.03;;;-0.30;99.90;;;;;;4903560;29;20214;-71
2021/03/05 07:11:39;;;;;;;6.07;5.55;;;-0.30;99.90;;;;;;4897724;29;20270;-70
2021/03/05 07:14:07;;;;;;;7.47;3.90;;;-0.20;99.90;;;;;;4909289;29;20223;-71
2021/03/05 07:16:42;;;;;;;5.57;5.00;;;-0.20;99.90;;;;;;4917318;29;20661;-71
2021/03/05 07:19:09;;;;;;;5.85;4.55;;;-0.10;99.90;;;;;;4917353;29;20213;-71
2021/03/05 07:21:40;;;;;;;5.55;5.15;;;-0.10;99.90;;;;;;4910368;29;20258;-69
2021/03/05 07:24:08;;;;;;;4.47;4.07;;;0.00;99.90;;;;;;4911912;29;20219;-68
2021/03/05 07:26:42;;;;;;;5.72;4.55;;;0.00;99.90;;;;;;4916095;29;20229;-68
2021/03/05 07:29:14;;;;;;;7.30;3.97;;;0.10;99.90;;;;;;4916767;29;20202;-68
2021/03/05 07:31:41;;;;;;;7.13;4.18;;;0.10;99.90;;;;;;4916469;29;20249;-68
2021/03/05 07:34:10;;;;;;;8.25;3.88;;;0.20;99.90;;;;;;4915729;29;20646;-69
2021/03/05 07:36:43;;;;;;;4.20;3.90;;;0.20;99.90;;;;;;4916285;29;20546;-68
2021/03/05 07:39:11;;;;;;;4.75;4.50;;;0.30;99.90;;;;;;4915721;29;20206;-68
2021/03/05 07:41:38;;;;;;;6.63;3.50;;;0.40;99.90;;;;;;4915926;29;20230;-68
2021/03/05 07:44:05;;;;;;;5.80;3.60;;;0.40;99.90;;;;;;4916036;29;20626;-68
2021/03/05 07:46:32;;;;;;;3.20;3.10;;;0.40;99.90;;;;;;4915878;29;20329;-68
2021/03/05 07:49:00;;;;;;;3.83;3.63;;;0.50;99.90;;;;;;4916033;29;20289;-68
2021/03/05 07:51:27;;;;;;;3.95;3.15;;;0.50;99.90;;;;;;4915389;29;20314;-68
2021/03/05 07:53:55;;;;;;;2.97;2.88;;;0.60;99.90;;;;;;4915539;29;20242;-68
2021/03/05 07:56:43;;;;;;;3.70;3.20;;;0.60;99.90;;;;;;4915017;29;20211;-68
2021/03/05 07:59:10;;;;;;;4.20;3.60;;;0.70;99.90;;;;;;4915606;29;20218;-67
2021/03/05 08:01:57;;;;;;;11.38;4.28;;;0.70;99.90;;;;;;4915264;29;20234;-67
2021/03/05 08:04:23;;;;;;;3.15;2.60;;;0.80;99.90;;;;;;4911832;29;20576;-67
2021/03/05 08:07:09;;;;;;;2.50;2.40;;;0.90;99.90;;;;;;4912059;29;20215;-68
2021/03/05 08:09:37;;;;;;;3.10;2.90;;;0.90;99.90;;;;;;4915408;29;20297;-67
2021/03/05 08:12:37;;;;;;;3.30;3.08;;;1.00;99.90;;;;;;4906961;29;20237;-67
2021/03/05 08:15:23;;;;;;;3.70;2.92;;;1.10;99.90;;;;;;4897159;29;20403;-67
2021/03/05 08:17:51;;;;;;;7.80;3.20;;;1.10;99.90;;;;;;4911077;29;20618;-67
2021/03/05 08:20:49;;;;;;;2.95;2.75;;;1.20;99.90;;;;;;4905831;29;20271;-67
2021/03/05 08:23:16;;;;;;;5.35;2.40;;;1.90;99.90;;;;;;4914729;29;20293;-66
2021/03/05 08:25:53;;;;;;;2.63;2.53;;;2.50;99.90;;;;;;4916073;29;20384;-67
2021/03/05 08:28:41;;;;;;;3.45;1.80;;;2.60;99.90;;;;;;4915633;29;20233;-67
2021/03/05 08:31:36;;;;;;;2.95;2.75;;;2.60;99.90;;;;;;4915430;29;20288;-67
2021/03/05 08:34:28;;;;;;;2.47;2.28;;;2.50;99.90;;;;;;4914359;29;20270;-67
2021/03/05 08:36:55;;;;;;;5.10;2.22;;;2.40;99.90;;;;;;4907190;29;20680;-68
2021/03/05 08:39:25;;;;;;;2.72;2.60;;;2.30;99.90;;;;;;4915411;29;20207;-68
2021/03/05 08:42:25;;;;;;;2.60;2.20;;;2.20;99.90;;;;;;4914620;29;20538;-68
2021/03/05 08:45:07;;;;;;;2.15;1.95;;;2.30;99.90;;;;;;4903207;29;20215;-67
2021/03/05 08:47:35;;;;;;;2.78;2.58;;;2.30;99.90;;;;;;4908572;29;20314;-68
2021/03/05 08:50:04;;;;;;;2.58;2.20;;;2.30;99.90;;;;;;4898822;29;20215;-67
2021/03/05 08:52:30;;;;;;;2.65;2.45;;;2.30;99.90;;;;;;4910348;29;20223;-68
2021/03/05 08:54:57;;;;;;;2.63;2.00;;;2.40;99.90;;;;;;4917706;29;20202;-68
2021/03/05 08:57:24;;;;;;;3.45;2.10;;;2.40;99.90;;;;;;4913696;29;20257;-68
2021/03/05 08:59:51;;;;;;;1.70;1.60;;;2.40;99.90;;;;;;4915008;29;20239;-68
2021/03/05 09:02:18;;;;;;;3.65;3.35;;;2.40;99.90;;;;;;4916996;29;20337;-68
2021/03/05 09:04:44;;;;;;;1.92;1.83;;;2.50;99.90;;;;;;4917548;29;20266;-68
2021/03/05 09:07:13;;;;;;;1.60;1.50;;;2.60;99.90;;;;;;4913048;29;20222;-68
2021/03/05 09:09:40;;;;;;;4.00;1.80;;;2.70;99.90;;;;;;4910846;29;20257;-69
2021/03/05 09:12:12;;;;;;;2.20;1.80;;;2.80;99.90;;;;;;4916224;29;20222;-68
2021/03/05 09:14:38;;;;;;;1.40;1.40;;;2.80;99.90;;;;;;4916572;29;20211;-68
2021/03/05 09:17:07;;;;;;;2.17;2.00;;;2.90;99.90;;;;;;4917841;29;20211;-68
2021/03/05 09:19:38;;;;;;;2.65;2.50;;;3.00;99.90;;;;;;4910797;29;20250;-68
2021/03/05 09:22:13;;;;;;;1.90;1.77;;;3.10;99.90;;;;;;4916681;29;20230;-68
2021/03/05 09:24:54;;;;;;;1.88;1.65;;;3.20;99.90;;;;;;4911217;29;20282;-68
2021/03/05 09:27:22;;;;;;;2.35;1.50;;;3.20;99.90;;;;;;4916966;29;20225;-69
2021/03/05 09:29:49;;;;;;;2.08;1.85;;;3.30;99.90;;;;;;4917241;29;20241;-69
2021/03/05 09:32:15;;;;;;;3.13;2.10;;;3.40;99.90;;;;;;4913836;29;20235;-68
2021/03/05 09:34:53;;;;;;;1.90;1.80;;;3.40;99.90;;;;;;4901016;29;20219;-68
2021/03/05 09:37:22;;;;;;;1.50;1.50;;;3.40;99.90;;;;;;4915820;29;20214;-68
2021/03/05 09:39:49;;;;;;;1.48;1.13;;;3.40;99.90;;;;;;4916922;29;20207;-68
2021/03/05 09:42:16;;;;;;;2.08;2.08;;;3.50;99.90;;;;;;4915800;29;20566;-68
2021/03/05 09:44:43;;;;;;;2.60;1.83;;;3.60;99.90;;;;;;4914136;29;20211;-68
2021/03/05 09:47:09;;;;;;;2.60;1.35;;;3.70;99.90;;;;;;4904070;29;20298;-68
2021/03/05 09:49:36;;;;;;;1.65;1.10;;;3.70;99.90;;;;;;4907763;29;20211;-69
2021/03/05 09:52:02;;;;;;;1.35;1.10;;;3.70;99.90;;;;;;4914704;29;20242;-68
2021/03/05 09:54:37;;;;;;;2.10;1.90;;;3.80;99.90;;;;;;4911259;29;20347;-69
2021/03/05 09:57:04;;;;;;;1.50;1.40;;;3.90;99.90;;;;;;4915096;29;20203;-69
2021/03/05 09:59:41;;;;;;;17.75;5.38;;;4.00;99.90;;;;;;4915873;29;20207;-69
2021/03/05 10:02:08;;;;;;;1.30;1.20;;;4.10;99.90;;;;;;4899233;29;20243;-69
2021/03/05 10:04:42;;;;;;;1.23;1.15;;;4.20;99.90;;;;;;4914213;29;20595;-69
2021/03/05 10:07:09;;;;;;;1.45;1.00;;;4.20;99.90;;;;;;4899511;29;20604;-69
2021/03/05 10:09:36;;;;;;;1.17;1.15;;;4.20;99.90;;;;;;4914880;29;20225;-69
2021/03/05 10:12:02;;;;;;;1.10;1.10;;;4.20;99.90;;;;;;4916736;29;20230;-69
2021/03/05 10:14:31;;;;;;;1.30;1.30;;;4.20;99.90;;;;;;4916843;29;20206;-69
2021/03/05 10:17:07;;;;;;;1.83;1.73;;;4.30;99.90;;;;;;4916675;29;20277;-69
2021/03/05 10:19:33;;;;;;;3.13;1.20;;;4.30;99.90;;;;;;4916614;29;20202;-69
2021/03/05 10:22:00;;;;;;;0.93;0.93;;;4.30;99.90;;;;;;4916487;29;20716;-69
2021/03/05 10:24:27;;;;;;;1.15;1.15;;;4.40;99.90;;;;;;4915488;29;20210;-69
2021/03/05 10:27:12;;;;;;;2.08;1.15;;;4.40;99.90;;;;;;4916527;29;20538;-69
2021/03/05 10:29:42;;;;;;;1.95;1.65;;;4.40;99.90;;;;;;4911015;29;20225;-69
2021/03/05 10:32:19;;;;;;;2.30;2.03;;;4.50;99.90;;;;;;4916075;29;20227;-69
2021/03/05 10:34:47;;;;;;;1.10;1.10;;;4.60;99.90;;;;;;4913176;29;20221;-69
2021/03/05 10:37:14;;;;;;;1.17;1.10;;;4.60;99.90;;;;;;4916425;29;20217;-69
2021/03/05 10:39:41;;;;;;;0.60;0.60;;;4.70;99.90;;;;;;4913960;29;20622;-70
2021/03/05 10:42:12;;;;;;;1.10;1.10;;;4.70;99.90;;;;;;4915685;29;20234;-70
2021/03/05 10:44:38;;;;;;;0.90;0.90;;;4.70;99.90;;;;;;4917573;29;20668;-70
2021/03/05 10:47:07;;;;;;;1.80;1.15;;;4.80;99.90;;;;;;4915977;29;20299;-69
2021/03/05 10:49:34;;;;;;;1.85;1.58;;;4.80;99.90;;;;;;4906754;29;20704;-70
2021/03/05 10:52:00;;;;;;;1.90;1.70;;;4.90;99.90;;;;;;4916713;29;20246;-69
2021/03/05 10:54:27;;;;;;;1.10;1.10;;;4.90;99.90;;;;;;4915192;29;20282;-70
2021/03/05 10:56:54;;;;;;;2.70;1.83;;;4.90;99.90;;;;;;4916270;29;20203;-69
2021/03/05 10:59:22;;;;;;;4.25;1.55;;;5.00;99.90;;;;;;4909121;29;20661;-69
2021/03/05 11:01:51;;;;;;;1.23;1.23;;;5.00;99.90;;;;;;4901901;29;20542;-70
2021/03/05 11:04:18;;;;;;;1.45;1.45;;;5.10;99.90;;;;;;4913268;29;20213;-70
2021/03/05 11:06:46;;;;;;;1.63;1.63;;;5.20;99.70;;;;;;4913659;29;20206;-69
2021/03/05 11:09:12;;;;;;;1.08;1.08;;;5.30;99.90;;;;;;4908374;29;20739;-70
2021/03/05 11:11:38;;;;;;;1.75;1.63;;;5.30;98.90;;;;;;4902406;29;20242;-70
2021/03/05 11:14:05;;;;;;;2.60;2.40;;;5.40;98.30;;;;;;4907108;29;20579;-69
2021/03/05 11:16:32;;;;;;;4.45;2.10;;;5.40;98.80;;;;;;4906649;29;20292;-70
2021/03/05 11:18:58;;;;;;;4.15;2.10;;;5.50;99.90;;;;;;4898097;29;20700;-70
2021/03/05 11:21:25;;;;;;;2.20;2.00;;;5.50;99.80;;;;;;4912640;29;20230;-70
2021/03/05 11:23:51;;;;;;;2.80;2.00;;;5.50;99.90;;;;;;4897230;29;20592;-70
2021/03/05 11:26:18;;;;;;;1.58;1.58;;;5.50;98.80;;;;;;4897685;29;20215;-69
2021/03/05 11:28:44;;;;;;;1.45;1.45;;;5.50;96.90;;;;;;4909827;29;20261;-69
2021/03/05 11:31:11;;;;;;;1.10;1.10;;;5.60;95.90;;;;;;4913315;29;20337;-68
2021/03/05 11:33:39;;;;;;;1.23;1.20;;;5.60;96.10;;;;;;4914141;29;20214;-68
2021/03/05 11:36:06;;;;;;;1.00;1.00;;;5.60;94.30;;;;;;4915861;29;20210;-68
2021/03/05 11:38:32;;;;;;;2.38;2.13;;;5.60;94.90;;;;;;4912276;29;20207;-68
2021/03/05 11:40:58;;;;;;;3.53;0.82;;;5.70;95.70;;;;;;4915401;29;20234;-68
2021/03/05 11:43:24;;;;;;;1.13;1.00;;;5.60;95.30;;;;;;4911598;29;20230;-68
2021/03/05 11:45:51;;;;;;;1.15;1.15;;;5.60;95.30;;;;;;4913709;29;20230;-68
2021/03/05 11:48:17;;;;;;;0.80;0.80;;;5.70;94.90;;;;;;4912164;29;20222;-68
2021/03/05 11:50:44;;;;;;;0.85;0.85;;;5.70;94.70;;;;;;4909401;29;20253;-69
2021/03/05 11:53:10;;;;;;;1.08;0.90;;;5.80;94.30;;;;;;4910313;29;20206;-68
2021/03/05 11:55:36;;;;;;;4.38;2.75;;;5.80;94.20;;;;;;4915799;29;20637;-70
2021/03/05 11:58:03;;;;;;;1.02;0.90;;;5.70;93.40;;;;;;4918214;29;20250;-70
2021/03/05 12:00:30;;;;;;;2.38;1.10;;;5.80;93.90;;;;;;4917200;29;20230;-70
2021/03/05 12:02:56;;;;;;;1.15;0.80;;;5.80;92.70;;;;;;4919613;29;20226;-70
2021/03/05 12:05:23;;;;;;;1.58;1.48;;;5.80;92.60;;;;;;4917517;29;20261;-70
2021/03/05 12:07:50;;;;;;;0.73;0.73;;;5.80;93.10;;;;;;4917569;29;20582;-71
2021/03/05 12:10:16;;;;;;;0.75;0.75;;;5.90;94.10;;;;;;4912212;29;20516;-70
2021/03/05 12:12:42;;;;;;;0.85;0.85;;;5.90;94.00;;;;;;4911417;29;20207;-72
2021/03/05 12:15:09;;;;;;;0.77;0.77;;;6.00;93.80;;;;;;4909927;29;20297;-70
2021/03/05 12:17:35;;;;;;;0.95;0.95;;;6.00;93.40;;;;;;4911791;29;20207;-70
2021/03/05 12:20:02;;;;;;;0.95;0.70;;;6.10;92.70;;;;;;4915378;29;20217;-70
2021/03/05 12:22:28;;;;;;;0.90;0.90;;;6.10;91.90;;;;;;4914950;29;20242;-70
2021/03/05 12:24:55;;;;;;;0.80;0.80;;;6.10;91.70;;;;;;4918467;29;20215;-71
2021/03/05 12:27:22;;;;;;;1.10;1.10;;;6.10;91.10;;;;;;4920674;29;20293;-69
2021/03/05 12:29:48;;;;;;;1.05;1.02;;;6.20;90.20;;;;;;4920978;29;20206;-70
2021/03/05 12:32:14;;;;;;;1.75;1.60;;;6.20;90.50;;;;;;4919726;29;20222;-69
2021/03/05 12:34:41;;;;;;;1.30;1.20;;;6.30;90.60;;;;;;4913379;29;20215;-69
2021/03/05 12:37:08;;;;;;;0.70;0.70;;;6.30;90.60;;;;;;4915466;29;20305;-68
2021/03/05 12:39:34;;;;;;;1.00;1.00;;;6.30;90.90;;;;;;4916491;29;20207;-68
2021/03/05 12:42:02;;;;;;;0.80;0.80;;;6.40;90.70;;;;;;4910047;29;21767;-69
2021/03/05 12:44:28;;;;;;;0.90;0.90;;;6.30;90.70;;;;;;4919901;29;20220;-70
2021/03/05 12:46:54;;;;;;;1.10;1.00;;;6.30;91.20;;;;;;4916020;29;20649;-70
2021/03/05 12:49:21;;;;;;;1.02;0.90;;;6.40;91.00;;;;;;4913777;29;20203;-71
2021/03/05 12:51:47;;;;;;;1.00;0.90;;;6.40;91.10;;;;;;4921232;28;20234;-72
2021/03/05 12:54:13;;;;;;;0.70;0.70;;;6.40;91.10;;;;;;4919294;29;20246;-71
2021/03/05 12:56:39;;;;;;;1.05;0.77;;;6.50;89.80;;;;;;4918421;29;20266;-70
2021/03/05 12:59:06;;;;;;;0.88;0.80;;;6.40;87.20;;;;;;4912118;29;20202;-71
2021/03/05 13:01:32;;;;;;;0.88;0.88;;;6.40;87.30;;;;;;4921788;29;20246;-71
2021/03/05 13:03:58;;;;;;;1.77;1.02;;;6.30;86.20;;;;;;4914432;29;20199;-70
2021/03/05 13:06:24;;;;;;;1.13;1.02;;;6.30;85.60;;;;;;4921334;29;20577;-70
2021/03/05 13:08:50;;;;;;;1.23;0.73;;;6.30;86.00;;;;;;4920091;29;20246;-70
2021/03/05 13:11:17;;;;;;;1.00;1.00;;;6.40;85.10;;;;;;4920651;29;20234;-70
2021/03/05 13:13:43;;;;;;;1.90;1.70;;;6.40;84.30;;;;;;4921812;29;20211;-71
2021/03/05 13:16:11;;;;;;;1.00;0.75;;;6.40;84.20;;;;;;4908024;29;20207;-70
2021/03/05 13:18:37;;;;;;;1.15;0.70;;;6.50;84.10;;;;;;4906650;29;20278;-71
2021/03/05 13:21:03;;;;;;;0.90;0.90;;;6.50;83.00;;;;;;4925283;29;20255;-72
2021/03/05 13:23:29;;;;;;;0.60;0.60;;;6.60;80.10;;;;;;4925466;29;20254;-69
2021/03/05 13:26:00;;;;;;;0.43;0.43;;;6.60;76.20;;;;;;4922562;29;20225;-72
2021/03/05 13:28:26;;;;;;;1.20;0.60;;;6.60;73.30;;;;;;4920374;29;20231;-71
2021/03/05 13:30:52;;;;;;;1.23;0.50;;;6.50;70.90;;;;;;4924809;29;20610;-70
2021/03/05 13:33:19;;;;;;;0.50;0.50;;;6.60;70.40;;;;;;4926235;29;20221;-70
2021/03/05 13:35:45;;;;;;;0.77;0.70;;;6.60;70.00;;;;;;4918903;29;20214;-69
2021/03/05 13:38:11;;;;;;;0.98;0.98;;;6.70;70.40;;;;;;4916873;29;20217;-69
2021/03/05 13:40:37;;;;;;;0.75;0.75;;;6.70;71.30;;;;;;4917878;29;20241;-69
2021/03/05 13:43:04;;;;;;;0.43;0.43;;;6.70;69.80;;;;;;4916440;29;20234;-69
2021/03/05 13:45:30;;;;;;;0.60;0.60;;;6.70;70.30;;;;;;4919438;29;20250;-69
2021/03/05 13:47:56;;;;;;;2.15;0.75;;;6.70;70.90;;;;;;4922323;29;20241;-69
2021/03/05 13:50:23;;;;;;;0.50;0.50;;;6.70;69.70;;;;;;4919684;29;20214;-67
2021/03/05 13:52:49;;;;;;;0.68;0.68;;;6.70;70.40;;;;;;4917453;29;20219;-67
2021/03/05 13:55:15;;;;;;;0.35;0.35;;;6.60;69.70;;;;;;4917691;29;20222;-67
2021/03/05 13:57:42;;;;;;;1.05;0.75;;;6.70;70.40;;;;;;4916931;29;20206;-67
2021/03/05 14:00:09;;;;;;;0.80;0.80;;;6.80;70.40;;;;;;4917611;29;20214;-67
2021/03/05 14:02:35;;;;;;;0.80;0.80;;;6.80;69.70;;;;;;4915880;28;20285;-68
2021/03/05 14:05:01;;;;;;;1.23;1.17;;;6.80;71.90;;;;;;4917309;29;20538;-67
2021/03/05 14:07:28;;;;;;;1.95;0.93;;;6.80;71.30;;;;;;4917025;29;20388;-67
2021/03/05 14:09:54;;;;;;;0.73;0.70;;;6.80;71.10;;;;;;4917308;29;20222;-67
2021/03/05 14:12:21;;;;;;;3.58;0.65;;;6.80;72.30;;;;;;4916536;29;20277;-68
2021/03/05 14:14:47;;;;;;;0.60;0.60;;;6.90;73.60;;;;;;4917116;29;20223;-68
2021/03/05 14:17:13;;;;;;;0.82;0.82;;;6.80;72.70;;;;;;4916794;29;20233;-67
2021/03/05 14:19:39;;;;;;;0.65;0.65;;;6.90;72.50;;;;;;4916742;29;20211;-67
2021/03/05 14:22:06;;;;;;;1.23;0.50;;;6.90;72.60;;;;;;4916586;29;20227;-67
2021/03/05 14:24:33;;;;;;;0.70;0.70;;;6.90;71.60;;;;;;4917013;29;20207;-68
2021/03/05 14:26:59;;;;;;;0.90;0.82;;;6.80;71.10;;;;;;4916249;29;20214;-68
2021/03/05 14:29:25;;;;;;;0.73;0.73;;;6.80;71.60;;;;;;4916447;29;20270;-68
2021/03/05 14:31:51;;;;;;;1.08;1.08;;;6.80;72.40;;;;;;4916218;29;20234;-68
2021/03/05 14:34:18;;;;;;;0.65;0.65;;;6.80;72.40;;;;;;4916535;29;20214;-68
2021/03/05 14:36:44;;;;;;;1.63;1.20;;;6.80;72.00;;;;;;4916001;29;20210;-68
2021/03/05 14:39:11;;;;;;;0.50;0.50;;;6.70;71.20;;;;;;4916139;29;20206;-68
2021/03/05 14:41:38;;;;;;;2.67;0.70;;;6.80;72.70;;;;;;4916263;29;20605;-68
2021/03/05 14:44:05;;;;;;;0.52;0.52;;;6.80;74.30;;;;;;4915835;29;20214;-68
2021/03/05 14:46:31;;;;;;;0.70;0.70;;;6.80;74.30;;;;;;4916111;29;20211;-68
2021/03/05 14:48:57;;;;;;;1.05;0.73;;;6.80;75.10;;;;;;4916100;29;20828;-68
2021/03/05 14:51:24;;;;;;;0.80;0.80;;;6.80;76.10;;;;;;4916169;29;20369;-68
2021/03/05 14:53:50;;;;;;;0.50;0.50;;;6.80;75.10;;;;;;4916110;29;20214;-67
2021/03/05 14:56:17;;;;;;;0.75;0.73;;;6.70;74.40;;;;;;4915866;29;20641;-67
2021/03/05 14:58:44;;;;;;;1.00;0.77;;;6.80;75.10;;;;;;4916028;29;20206;-68
2021/03/05 15:01:10;;;;;;;0.68;0.68;;;6.80;74.80;;;;;;4915749;29;20238;-66
2021/03/05 15:03:36;;;;;;;0.52;0.52;;;6.70;75.00;;;;;;4915349;28;20653;-68
2021/03/05 15:06:03;;;;;;;0.65;0.65;;;6.80;75.10;;;;;;4916295;29;20210;-69
2021/03/05 15:08:29;;;;;;;0.70;0.70;;;6.80;75.10;;;;;;4915135;29;20253;-70
2021/03/05 15:10:56;;;;;;;0.75;0.75;;;6.80;73.70;;;;;;4915491;29;20235;-70
2021/03/05 15:13:22;;;;;;;2.70;1.10;;;6.70;75.80;;;;;;4914637;29;20211;-70
2021/03/05 15:15:49;;;;;;;0.75;0.75;;;6.70;77.60;;;;;;4915484;29;20555;-70
2021/03/05 15:18:15;;;;;;;1.02;0.90;;;6.70;78.40;;;;;;4915252;29;20203;-70
2021/03/05 15:20:42;;;;;;;0.80;0.80;;;6.60;78.00;;;;;;4915871;29;20270;-71
2021/03/05 15:23:09;;;;;;;1.27;0.82;;;6.60;78.60;;;;;;4914515;29;20519;-70
2021/03/05 15:25:35;;;;;;;1.20;1.00;;;6.60;79.00;;;;;;4916121;29;20294;-69
2021/03/05 15:28:01;;;;;;;1.40;0.82;;;6.60;80.20;;;;;;4915447;29;20285;-69
2021/03/05 15:30:28;;;;;;;0.60;0.60;;;6.60;79.90;;;;;;4916572;29;20238;-69
2021/03/05 15:32:55;;;;;;;0.90;0.90;;;6.60;79.30;;;;;;4912248;29;20229;-70
2021/03/05 15:35:21;;;;;;;0.60;0.60;;;6.50;81.00;;;;;;4916118;29;20278;-70
2021/03/05 15:37:47;;;;;;;1.42;1.30;;;6.50;82.00;;;;;;4909257;29;20207;-69
2021/03/05 15:40:15;;;;;;;1.20;1.20;;;6.50;82.70;;;;;;4915491;29;20214;-69
2021/03/05 15:42:42;;;;;;;1.30;1.30;;;6.50;83.50;;;;;;4914316;29;20219;-70
2021/03/05 15:45:10;;;;;;;2.13;1.90;;;6.50;84.10;;;;;;4913131;29;20207;-69
2021/03/05 15:47:37;;;;;;;0.93;0.93;;;6.40;84.60;;;;;;4898714;29;20231;-69
2021/03/05 15:50:06;;;;;;;0.95;0.60;;;6.40;83.40;;;;;;4901211;29;20202;-70
2021/03/05 15:52:32;;;;;;;1.08;1.08;;;6.40;84.40;;;;;;4913830;29;20230;-69
2021/03/05 15:54:58;;;;;;;1.38;1.27;;;6.30;84.50;;;;;;4915530;29;20206;-69
2021/03/05 15:57:24;;;;;;;0.95;0.95;;;6.30;84.70;;;;;;4914773;29;20609;-69
2021/03/05 15:59:50;;;;;;;9.13;5.47;;;6.20;84.70;;;;;;4916900;29;20466;-71
2021/03/05 16:02:17;;;;;;;1.77;1.67;;;6.20;86.50;;;;;;4918472;29;20617;-69
2021/03/05 16:04:44;;;;;;;1.10;1.10;;;6.20;87.10;;;;;;4917683;29;20206;-69
2021/03/05 16:07:11;;;;;;;1.30;1.30;;;6.20;88.40;;;;;;4918329;29;20219;-68
2021/03/05 16:09:37;;;;;;;5.78;1.30;;;6.10;88.60;;;;;;4916036;29;20218;-69
2021/03/05 16:12:05;;;;;;;2.25;1.83;;;6.10;89.10;;;;;;4918359;29;20233;-68
2021/03/05 16:14:31;;;;;;;3.35;2.40;;;6.00;89.60;;;;;;4911541;29;20215;-69
2021/03/05 16:16:57;;;;;;;1.40;1.40;;;6.00;90.00;;;;;;4907477;29;20685;-70
2021/03/05 16:19:25;;;;;;;1.30;1.30;;;5.90;90.40;;;;;;4910364;29;20287;-68
2021/03/05 16:21:51;;;;;;;0.90;0.90;;;5.90;90.70;;;;;;4912422;29;20787;-69
2021/03/05 16:24:18;;;;;;;1.92;1.70;;;5.90;90.60;;;;;;4913910;29;20222;-69
2021/03/05 16:26:46;;;;;;;1.00;1.00;;;5.80;90.80;;;;;;4898940;29;20212;-69
2021/03/05 16:29:12;;;;;;;1.23;1.23;;;5.80;90.90;;;;;;4915464;29;20275;-69
2021/03/05 16:31:39;;;;;;;2.28;1.40;;;5.70;90.90;;;;;;4909900;29;20234;-70
2021/03/05 16:34:05;;;;;;;2.25;1.58;;;5.70;91.30;;;;;;4917608;29;20214;-69
2021/03/05 16:36:32;;;;;;;1.38;1.30;;;5.60;90.90;;;;;;4918830;29;20214;-69
2021/03/05 16:38:59;;;;;;;1.75;1.10;;;5.60;90.60;;;;;;4901895;29;20206;-69
2021/03/05 16:41:26;;;;;;;1.10;1.10;;;5.50;90.80;;;;;;4899259;29;20235;-69
2021/03/05 16:43:52;;;;;;;1.15;1.00;;;5.50;91.00;;;;;;4900257;29;20270;-69
2021/03/05 16:46:18;;;;;;;1.10;1.10;;;5.40;91.60;;;;;;4903720;29;20203;-68
2021/03/05 16:48:44;;;;;;;0.90;0.90;;;5.30;91.50;;;;;;4915828;29;20234;-69
2021/03/05 16:51:10;;;;;;;1.27;1.27;;;5.30;91.70;;;;;;4917621;29;20230;-69
2021/03/05 16:53:36;;;;;;;1.00;1.00;;;5.20;91.80;;;;;;4917618;29;20237;-68
2021/03/05 16:56:03;;;;;;;1.58;1.48;;;5.20;92.30;;;;;;4915448;29;20210;-68
2021/03/05 16:58:30;;;;;;;1.88;1.77;;;5.10;92.40;;;;;;4918184;29;20229;-68
2021/03/05 17:00:56;;;;;;;4.65;1.52;;;5.00;92.80;;;;;;4902878;29;20247;-69
2021/03/05 17:03:22;;;;;;;1.35;1.35;;;5.00;93.30;;;;;;4906141;29;20203;-69
2021/03/05 17:05:49;;;;;;;1.98;1.45;;;4.90;93.70;;;;;;4909790;29;20254;-69
2021/03/05 17:08:15;;;;;;;1.50;1.50;;;4.80;94.40;;;;;;4917540;29;20608;-68
2021/03/05 17:10:42;;;;;;;1.85;1.75;;;4.70;94.90;;;;;;4915814;29;20233;-68
2021/03/05 17:13:08;;;;;;;1.95;1.85;;;4.70;95.60;;;;;;4915002;29;20688;-68
2021/03/05 17:15:35;;;;;;;3.30;2.20;;;4.60;96.10;;;;;;4917320;29;20210;-69
2021/03/05 17:18:01;;;;;;;2.55;2.42;;;4.60;96.40;;;;;;4917034;29;20688;-69
2021/03/05 17:20:28;;;;;;;2.05;1.90;;;4.50;97.30;;;;;;4917725;29;20226;-69
2021/03/05 17:22:54;;;;;;;2.38;2.28;;;4.40;98.00;;;;;;4916900;29;20210;-69
2021/03/05 17:25:20;;;;;;;4.13;2.55;;;4.40;98.70;;;;;;4917139;29;20266;-69
2021/03/05 17:27:46;;;;;;;2.80;2.65;;;4.30;99.60;;;;;;4916964;29;20294;-69
2021/03/05 17:30:14;;;;;;;2.92;2.83;;;4.30;99.90;;;;;;4911200;29;20211;-69
2021/03/05 17:32:41;;;;;;;1.92;1.83;;;4.20;99.90;;;;;;4916869;29;20230;-70
2021/03/05 17:35:08;;;;;;;2.67;2.45;;;4.10;99.90;;;;;;4914249;29;20214;-69
2021/03/05 17:37:35;;;;;;;4.55;1.50;;;4.10;99.90;;;;;;4916907;29;20290;-69
2021/03/05 17:40:01;;;;;;;1.95;1.70;;;4.10;99.90;;;;;;4916516;29;20554;-69
2021/03/05 17:42:27;;;;;;;2.08;1.98;;;4.10;99.90;;;;;;4916393;29;20249;-69
2021/03/05 17:44:54;;;;;;;3.28;3.08;;;4.00;99.90;;;;;;4917196;29;20210;-68
2021/03/05 17:47:20;;;;;;;5.30;4.80;;;4.00;99.90;;;;;;4916667;29;20210;-70
2021/03/05 17:49:47;;;;;;;6.15;3.85;;;3.90;99.90;;;;;;4918057;29;20622;-69
2021/03/05 17:52:13;;;;;;;5.45;4.13;;;3.90;99.90;;;;;;4916010;29;20302;-69
2021/03/05 17:54:39;;;;;;;4.30;4.03;;;3.80;99.90;;;;;;4917205;29;20210;-68
2021/03/05 17:57:08;;;;;;;6.43;3.90;;;3.80;99.90;;;;;;4916348;29;20226;-71
2021/03/05 17:59:34;;;;;;;2.90;2.30;;;3.70;99.90;;;;;;4917259;29;20218;-68
2021/03/05 18:02:00;;;;;;;2.53;2.35;;;3.70;99.90;;;;;;4916117;29;20278;-68